sensor_id;sensor_type;location;lat;lon;timestamp;P1;durP1;ratioP1;P2;durP2;ratioP2
11943;SDS011;6031;50.220;10.122;2023-06-01T00:01:52;2.67;;;2.47;;
11943;SDS011;6031;50.220;10.122;2023-06-01T00:04:17;2.53;;;2.33;;
11943;SDS011;6031;50.220;10.122;2023-06-01T00:06:43;2.93;;;2.10;;
11943;SDS011;6031;50.220;10.122;2023-06-01T00:09:09;4.00;;;1.90;;
11943;SDS011;6031;50.220;10.122;2023-06-01T00:11:34;5.37;;;2.07;;
11943;SDS011;6031;50.220;10.122;2023-06-01T00:14:00;3.27;;;2.17;;
11943;SDS011;6031;50.220;10.122;2023-06-01T00:16:26;2.97;;;2.30;;
11943;SDS011;6031;50.220;10.122;2023-06-01T00:18:52;2.47;;;2.27;;
11943;SDS011;6031;50.220;10.122;2023-06-01T00:21:18;2.00;;;1.90;;
11943;SDS011;6031;50.220;10.122;2023-06-01T00:23:44;2.30;;;2.10;;
11943;SDS011;6031;50.220;10.122;2023-06-01T00:26:11;2.73;;;2.40;;
11943;SDS011;6031;50.220;10.122;2023-06-01T00:28:36;2.93;;;2.00;;
11943;SDS011;6031;50.220;10.122;2023-06-01T00:31:02;2.87;;;2.00;;
11943;SDS011;6031;50.220;10.122;2023-06-01T00:33:27;3.23;;;2.23;;
11943;SDS011;6031;50.220;10.122;2023-06-01T00:35:53;4.53;;;2.47;;
11943;SDS011;6031;50.220;10.122;2023-06-01T00:38:18;3.97;;;2.37;;
11943;SDS011;6031;50.220;10.122;2023-06-01T00:40:44;2.73;;;2.30;;
11943;SDS011;6031;50.220;10.122;2023-06-01T00:43:10;4.83;;;2.40;;
11943;SDS011;6031;50.220;10.122;2023-06-01T00:45:36;2.23;;;2.00;;
11943;SDS011;6031;50.220;10.122;2023-06-01T00:48:04;2.77;;;2.33;;
11943;SDS011;6031;50.220;10.122;2023-06-01T00:50:30;3.53;;;2.50;;
11943;SDS011;6031;50.220;10.122;2023-06-01T00:52:56;3.90;;;2.03;;
11943;SDS011;6031;50.220;10.122;2023-06-01T00:55:23;3.00;;;1.93;;
11943;SDS011;6031;50.220;10.122;2023-06-01T00:57:49;4.10;;;2.10;;
11943;SDS011;6031;50.220;10.122;2023-06-01T01:00:15;3.03;;;1.83;;
11943;SDS011;6031;50.220;10.122;2023-06-01T01:02:42;2.63;;;2.17;;
11943;SDS011;6031;50.220;10.122;2023-06-01T01:05:13;4.53;;;2.20;;
11943;SDS011;6031;50.220;10.122;2023-06-01T01:18:28;2.47;;;2.20;;
11943;SDS011;6031;50.220;10.122;2023-06-01T01:21:02;3.87;;;2.40;;
11943;SDS011;6031;50.220;10.122;2023-06-01T01:26:58;2.60;;;2.13;;
11943;SDS011;6031;50.220;10.122;2023-06-01T01:29:35;3.57;;;2.57;;
11943;SDS011;6031;50.220;10.122;2023-06-01T01:32:03;2.87;;;2.40;;
11943;SDS011;6031;50.220;10.122;2023-06-01T01:34:30;3.40;;;2.37;;
11943;SDS011;6031;50.220;10.122;2023-06-01T01:36:57;3.30;;;2.13;;
11943;SDS011;6031;50.220;10.122;2023-06-01T01:39:23;5.10;;;2.20;;
11943;SDS011;6031;50.220;10.122;2023-06-01T01:41:49;3.63;;;2.70;;
11943;SDS011;6031;50.220;10.122;2023-06-01T01:44:14;2.50;;;2.20;;
11943;SDS011;6031;50.220;10.122;2023-06-01T01:46:46;3.00;;;2.70;;
11943;SDS011;6031;50.220;10.122;2023-06-01T01:49:34;2.77;;;2.30;;
11943;SDS011;6031;50.220;10.122;2023-06-01T01:52:16;3.03;;;2.40;;
11943;SDS011;6031;50.220;10.122;2023-06-01T01:54:46;5.33;;;2.03;;
11943;SDS011;6031;50.220;10.122;2023-06-01T01:57:14;2.53;;;2.10;;
11943;SDS011;6031;50.220;10.122;2023-06-01T01:59:41;2.30;;;2.10;;
11943;SDS011;6031;50.220;10.122;2023-06-01T02:02:08;2.57;;;2.37;;
11943;SDS011;6031;50.220;10.122;2023-06-01T02:04:41;7.60;;;2.77;;
11943;SDS011;6031;50.220;10.122;2023-06-01T02:07:07;2.50;;;2.30;;
11943;SDS011;6031;50.220;10.122;2023-06-01T02:09:33;2.83;;;2.60;;
11943;SDS011;6031;50.220;10.122;2023-06-01T02:11:59;3.90;;;2.30;;
11943;SDS011;6031;50.220;10.122;2023-06-01T02:14:25;3.00;;;2.20;;
11943;SDS011;6031;50.220;10.122;2023-06-01T02:16:50;5.63;;;2.60;;
11943;SDS011;6031;50.220;10.122;2023-06-01T02:19:16;3.30;;;2.70;;
11943;SDS011;6031;50.220;10.122;2023-06-01T02:21:42;4.60;;;2.80;;
11943;SDS011;6031;50.220;10.122;2023-06-01T02:24:08;2.90;;;2.37;;
11943;SDS011;6031;50.220;10.122;2023-06-01T02:26:34;2.53;;;2.33;;
11943;SDS011;6031;50.220;10.122;2023-06-01T02:29:00;5.03;;;2.17;;
11943;SDS011;6031;50.220;10.122;2023-06-01T02:31:33;3.50;;;2.37;;
11943;SDS011;6031;50.220;10.122;2023-06-01T02:33:59;2.63;;;2.43;;
11943;SDS011;6031;50.220;10.122;2023-06-01T02:36:25;2.30;;;2.10;;
11943;SDS011;6031;50.220;10.122;2023-06-01T02:38:53;2.70;;;2.00;;
11943;SDS011;6031;50.220;10.122;2023-06-01T02:41:18;2.70;;;2.20;;
11943;SDS011;6031;50.220;10.122;2023-06-01T02:43:44;3.67;;;2.77;;
11943;SDS011;6031;50.220;10.122;2023-06-01T02:46:09;2.97;;;2.57;;
11943;SDS011;6031;50.220;10.122;2023-06-01T02:48:35;2.43;;;2.23;;
11943;SDS011;6031;50.220;10.122;2023-06-01T02:51:00;3.10;;;2.80;;
11943;SDS011;6031;50.220;10.122;2023-06-01T02:53:26;2.60;;;2.40;;
11943;SDS011;6031;50.220;10.122;2023-06-01T02:55:53;3.63;;;2.73;;
11943;SDS011;6031;50.220;10.122;2023-06-01T02:58:19;4.70;;;2.50;;
11943;SDS011;6031;50.220;10.122;2023-06-01T03:00:45;3.03;;;2.53;;
11943;SDS011;6031;50.220;10.122;2023-06-01T03:03:11;2.40;;;2.20;;
11943;SDS011;6031;50.220;10.122;2023-06-01T03:05:37;2.30;;;2.10;;
11943;SDS011;6031;50.220;10.122;2023-06-01T03:08:03;2.50;;;2.30;;
11943;SDS011;6031;50.220;10.122;2023-06-01T03:10:29;2.37;;;2.17;;
11943;SDS011;6031;50.220;10.122;2023-06-01T03:12:54;2.83;;;2.57;;
11943;SDS011;6031;50.220;10.122;2023-06-01T03:15:20;3.87;;;2.20;;
11943;SDS011;6031;50.220;10.122;2023-06-01T03:17:46;3.33;;;2.53;;
11943;SDS011;6031;50.220;10.122;2023-06-01T03:20:11;3.27;;;2.63;;
11943;SDS011;6031;50.220;10.122;2023-06-01T03:22:41;3.43;;;2.20;;
11943;SDS011;6031;50.220;10.122;2023-06-01T03:25:07;3.67;;;2.30;;
11943;SDS011;6031;50.220;10.122;2023-06-01T03:27:33;5.20;;;2.60;;
11943;SDS011;6031;50.220;10.122;2023-06-01T03:29:58;3.03;;;2.43;;
11943;SDS011;6031;50.220;10.122;2023-06-01T03:32:26;3.33;;;2.33;;
11943;SDS011;6031;50.220;10.122;2023-06-01T03:34:52;2.80;;;2.53;;
11943;SDS011;6031;50.220;10.122;2023-06-01T03:37:17;2.73;;;2.40;;
11943;SDS011;6031;50.220;10.122;2023-06-01T03:39:43;2.50;;;2.27;;
11943;SDS011;6031;50.220;10.122;2023-06-01T03:42:08;3.47;;;2.40;;
11943;SDS011;6031;50.220;10.122;2023-06-01T03:44:34;3.13;;;2.83;;
11943;SDS011;6031;50.220;10.122;2023-06-01T03:47:00;7.50;;;2.73;;
11943;SDS011;6031;50.220;10.122;2023-06-01T03:49:26;3.20;;;2.90;;
11943;SDS011;6031;50.220;10.122;2023-06-01T03:51:51;4.83;;;3.47;;
11943;SDS011;6031;50.220;10.122;2023-06-01T03:54:16;3.10;;;2.83;;
11943;SDS011;6031;50.220;10.122;2023-06-01T03:56:42;2.93;;;2.30;;
11943;SDS011;6031;50.220;10.122;2023-06-01T03:59:07;5.53;;;2.93;;
11943;SDS011;6031;50.220;10.122;2023-06-01T04:01:35;5.27;;;2.77;;
11943;SDS011;6031;50.220;10.122;2023-06-01T04:04:01;2.57;;;2.37;;
11943;SDS011;6031;50.220;10.122;2023-06-01T04:06:29;2.87;;;2.57;;
11943;SDS011;6031;50.220;10.122;2023-06-01T04:08:54;3.00;;;2.70;;
11943;SDS011;6031;50.220;10.122;2023-06-01T04:11:21;3.17;;;2.30;;
11943;SDS011;6031;50.220;10.122;2023-06-01T04:13:49;4.73;;;2.97;;
11943;SDS011;6031;50.220;10.122;2023-06-01T04:16:15;3.67;;;2.60;;
11943;SDS011;6031;50.220;10.122;2023-06-01T04:18:41;3.50;;;2.63;;
11943;SDS011;6031;50.220;10.122;2023-06-01T04:21:07;3.80;;;2.90;;
11943;SDS011;6031;50.220;10.122;2023-06-01T04:23:34;4.27;;;2.53;;
11943;SDS011;6031;50.220;10.122;2023-06-01T04:26:00;4.30;;;2.70;;
11943;SDS011;6031;50.220;10.122;2023-06-01T04:28:27;3.27;;;2.53;;
11943;SDS011;6031;50.220;10.122;2023-06-01T04:30:53;3.73;;;2.67;;
11943;SDS011;6031;50.220;10.122;2023-06-01T04:33:19;2.80;;;2.40;;
11943;SDS011;6031;50.220;10.122;2023-06-01T04:35:45;6.17;;;3.27;;
11943;SDS011;6031;50.220;10.122;2023-06-01T04:38:10;5.07;;;2.73;;
11943;SDS011;6031;50.220;10.122;2023-06-01T04:40:36;3.60;;;3.30;;
11943;SDS011;6031;50.220;10.122;2023-06-01T04:43:02;3.13;;;2.53;;
11943;SDS011;6031;50.220;10.122;2023-06-01T04:45:28;4.70;;;2.97;;
11943;SDS011;6031;50.220;10.122;2023-06-01T04:47:58;4.47;;;3.43;;
11943;SDS011;6031;50.220;10.122;2023-06-01T04:50:24;4.50;;;3.20;;
11943;SDS011;6031;50.220;10.122;2023-06-01T04:52:49;4.20;;;3.10;;
11943;SDS011;6031;50.220;10.122;2023-06-01T04:55:15;4.50;;;3.33;;
11943;SDS011;6031;50.220;10.122;2023-06-01T04:57:42;3.30;;;2.97;;
11943;SDS011;6031;50.220;10.122;2023-06-01T05:00:11;5.87;;;3.50;;
11943;SDS011;6031;50.220;10.122;2023-06-01T05:02:38;3.83;;;3.00;;
11943;SDS011;6031;50.220;10.122;2023-06-01T05:05:05;6.50;;;3.50;;
11943;SDS011;6031;50.220;10.122;2023-06-01T05:07:31;5.50;;;3.33;;
11943;SDS011;6031;50.220;10.122;2023-06-01T05:09:57;2.93;;;2.63;;
11943;SDS011;6031;50.220;10.122;2023-06-01T05:12:23;2.60;;;2.30;;
11943;SDS011;6031;50.220;10.122;2023-06-01T05:14:49;3.93;;;2.53;;
11943;SDS011;6031;50.220;10.122;2023-06-01T05:17:14;5.83;;;3.00;;
11943;SDS011;6031;50.220;10.122;2023-06-01T05:19:40;3.37;;;3.07;;
11943;SDS011;6031;50.220;10.122;2023-06-01T05:22:05;3.13;;;2.83;;
11943;SDS011;6031;50.220;10.122;2023-06-01T05:24:31;3.57;;;2.90;;
11943;SDS011;6031;50.220;10.122;2023-06-01T05:26:56;3.07;;;2.80;;
11943;SDS011;6031;50.220;10.122;2023-06-01T05:29:22;4.13;;;2.73;;
11943;SDS011;6031;50.220;10.122;2023-06-01T05:31:48;3.03;;;2.73;;
11943;SDS011;6031;50.220;10.122;2023-06-01T05:34:15;3.10;;;2.90;;
11943;SDS011;6031;50.220;10.122;2023-06-01T05:36:40;5.03;;;3.10;;
11943;SDS011;6031;50.220;10.122;2023-06-01T05:39:06;7.10;;;3.40;;
11943;SDS011;6031;50.220;10.122;2023-06-01T05:41:31;3.90;;;3.10;;
11943;SDS011;6031;50.220;10.122;2023-06-01T05:43:57;4.30;;;2.80;;
11943;SDS011;6031;50.220;10.122;2023-06-01T05:46:22;3.37;;;2.77;;
11943;SDS011;6031;50.220;10.122;2023-06-01T05:48:49;4.83;;;3.23;;
11943;SDS011;6031;50.220;10.122;2023-06-01T05:51:16;4.80;;;2.73;;
11943;SDS011;6031;50.220;10.122;2023-06-01T05:53:42;4.30;;;2.93;;
11943;SDS011;6031;50.220;10.122;2023-06-01T05:56:07;4.13;;;2.77;;
11943;SDS011;6031;50.220;10.122;2023-06-01T05:58:33;4.07;;;3.40;;
11943;SDS011;6031;50.220;10.122;2023-06-01T06:00:58;5.03;;;2.60;;
11943;SDS011;6031;50.220;10.122;2023-06-01T06:03:24;3.33;;;2.13;;
11943;SDS011;6031;50.220;10.122;2023-06-01T06:05:49;5.17;;;2.37;;
11943;SDS011;6031;50.220;10.122;2023-06-01T06:08:15;3.00;;;1.97;;
11943;SDS011;6031;50.220;10.122;2023-06-01T06:10:41;4.90;;;2.30;;
11943;SDS011;6031;50.220;10.122;2023-06-01T06:13:06;4.63;;;2.20;;
11943;SDS011;6031;50.220;10.122;2023-06-01T06:15:32;3.50;;;2.50;;
11943;SDS011;6031;50.220;10.122;2023-06-01T06:17:58;3.67;;;1.97;;
11943;SDS011;6031;50.220;10.122;2023-06-01T06:20:23;4.23;;;2.17;;
11943;SDS011;6031;50.220;10.122;2023-06-01T06:22:49;2.43;;;1.90;;
11943;SDS011;6031;50.220;10.122;2023-06-01T06:25:16;2.60;;;1.90;;
11943;SDS011;6031;50.220;10.122;2023-06-01T06:27:41;2.57;;;2.07;;
11943;SDS011;6031;50.220;10.122;2023-06-01T06:30:07;3.47;;;2.30;;
11943;SDS011;6031;50.220;10.122;2023-06-01T06:32:33;4.43;;;1.97;;
11943;SDS011;6031;50.220;10.122;2023-06-01T06:34:59;3.70;;;2.30;;
11943;SDS011;6031;50.220;10.122;2023-06-01T06:37:25;4.93;;;1.95;;
11943;SDS011;6031;50.220;10.122;2023-06-01T06:39:51;2.75;;;1.98;;
11943;SDS011;6031;50.220;10.122;2023-06-01T06:42:16;3.90;;;1.95;;
11943;SDS011;6031;50.220;10.122;2023-06-01T06:44:42;2.67;;;2.38;;
11943;SDS011;6031;50.220;10.122;2023-06-01T06:47:07;4.80;;;2.10;;
11943;SDS011;6031;50.220;10.122;2023-06-01T06:49:33;1.67;;;1.55;;
11943;SDS011;6031;50.220;10.122;2023-06-01T06:51:58;6.88;;;1.55;;
11943;SDS011;6031;50.220;10.122;2023-06-01T06:54:24;3.47;;;1.90;;
11943;SDS011;6031;50.220;10.122;2023-06-01T06:56:49;6.93;;;2.58;;
11943;SDS011;6031;50.220;10.122;2023-06-01T06:59:15;3.25;;;2.05;;
11943;SDS011;6031;50.220;10.122;2023-06-01T07:01:40;2.92;;;1.92;;
11943;SDS011;6031;50.220;10.122;2023-06-01T07:04:06;4.25;;;1.95;;
11943;SDS011;6031;50.220;10.122;2023-06-01T07:06:32;2.20;;;1.67;;
11943;SDS011;6031;50.220;10.122;2023-06-01T07:08:58;4.60;;;2.67;;
11943;SDS011;6031;50.220;10.122;2023-06-01T07:11:26;3.70;;;1.92;;
11943;SDS011;6031;50.220;10.122;2023-06-01T07:13:52;2.85;;;1.80;;
11943;SDS011;6031;50.220;10.122;2023-06-01T07:16:19;2.40;;;1.77;;
11943;SDS011;6031;50.220;10.122;2023-06-01T07:18:44;3.13;;;1.90;;
11943;SDS011;6031;50.220;10.122;2023-06-01T07:21:10;2.47;;;1.52;;
11943;SDS011;6031;50.220;10.122;2023-06-01T07:23:35;1.98;;;1.50;;
11943;SDS011;6031;50.220;10.122;2023-06-01T07:26:01;2.00;;;1.17;;
11943;SDS011;6031;50.220;10.122;2023-06-01T07:28:26;2.55;;;1.50;;
11943;SDS011;6031;50.220;10.122;2023-06-01T07:30:55;2.05;;;1.52;;
11943;SDS011;6031;50.220;10.122;2023-06-01T07:33:20;2.90;;;1.40;;
11943;SDS011;6031;50.220;10.122;2023-06-01T07:35:47;2.72;;;1.40;;
11943;SDS011;6031;50.220;10.122;2023-06-01T07:38:13;2.03;;;1.90;;
11943;SDS011;6031;50.220;10.122;2023-06-01T07:40:39;2.88;;;1.77;;
11943;SDS011;6031;50.220;10.122;2023-06-01T07:43:05;3.20;;;1.90;;
11943;SDS011;6031;50.220;10.122;2023-06-01T07:45:30;3.33;;;1.85;;
11943;SDS011;6031;50.220;10.122;2023-06-01T07:47:56;4.55;;;3.75;;
11943;SDS011;6031;50.220;10.122;2023-06-01T07:50:21;1.92;;;1.67;;
11943;SDS011;6031;50.220;10.122;2023-06-01T07:52:53;2.28;;;1.40;;
11943;SDS011;6031;50.220;10.122;2023-06-01T07:55:18;1.92;;;1.70;;
11943;SDS011;6031;50.220;10.122;2023-06-01T07:57:44;2.05;;;1.65;;
11943;SDS011;6031;50.220;10.122;2023-06-01T08:00:09;2.55;;;1.70;;
11943;SDS011;6031;50.220;10.122;2023-06-01T08:02:37;2.55;;;1.63;;
11943;SDS011;6031;50.220;10.122;2023-06-01T08:05:03;4.30;;;1.75;;
11943;SDS011;6031;50.220;10.122;2023-06-01T08:07:30;4.68;;;1.52;;
11943;SDS011;6031;50.220;10.122;2023-06-01T08:09:56;2.47;;;1.45;;
11943;SDS011;6031;50.220;10.122;2023-06-01T08:12:22;3.05;;;1.70;;
11943;SDS011;6031;50.220;10.122;2023-06-01T08:14:48;3.33;;;1.50;;
11943;SDS011;6031;50.220;10.122;2023-06-01T08:17:14;3.08;;;1.75;;
11943;SDS011;6031;50.220;10.122;2023-06-01T08:19:40;3.55;;;1.88;;
11943;SDS011;6031;50.220;10.122;2023-06-01T08:22:08;3.95;;;1.67;;
11943;SDS011;6031;50.220;10.122;2023-06-01T08:24:34;2.75;;;1.35;;
11943;SDS011;6031;50.220;10.122;2023-06-01T08:27:01;3.07;;;2.00;;
11943;SDS011;6031;50.220;10.122;2023-06-01T08:29:30;1.63;;;1.52;;
11943;SDS011;6031;50.220;10.122;2023-06-01T08:31:56;6.72;;;1.85;;
11943;SDS011;6031;50.220;10.122;2023-06-01T08:34:24;1.65;;;1.52;;
11943;SDS011;6031;50.220;10.122;2023-06-01T08:36:50;1.48;;;1.38;;
11943;SDS011;6031;50.220;10.122;2023-06-01T08:39:22;2.03;;;1.75;;
11943;SDS011;6031;50.220;10.122;2023-06-01T08:41:58;6.68;;;1.75;;
11943;SDS011;6031;50.220;10.122;2023-06-01T08:44:35;2.65;;;1.58;;
11943;SDS011;6031;50.220;10.122;2023-06-01T08:47:03;1.48;;;1.38;;
11943;SDS011;6031;50.220;10.122;2023-06-01T08:49:33;2.75;;;1.73;;
11943;SDS011;6031;50.220;10.122;2023-06-01T08:52:02;2.55;;;1.63;;
11943;SDS011;6031;50.220;10.122;2023-06-01T08:54:31;3.88;;;1.85;;
11943;SDS011;6031;50.220;10.122;2023-06-01T08:57:00;2.80;;;1.70;;
11943;SDS011;6031;50.220;10.122;2023-06-01T08:59:30;3.33;;;1.70;;
11943;SDS011;6031;50.220;10.122;2023-06-01T09:01:56;3.70;;;1.90;;
11943;SDS011;6031;50.220;10.122;2023-06-01T09:04:22;2.80;;;1.63;;
11943;SDS011;6031;50.220;10.122;2023-06-01T09:06:48;1.50;;;1.40;;
11943;SDS011;6031;50.220;10.122;2023-06-01T09:09:14;5.30;;;1.70;;
11943;SDS011;6031;50.220;10.122;2023-06-01T09:11:39;3.15;;;1.85;;
11943;SDS011;6031;50.220;10.122;2023-06-01T09:17:00;2.75;;;1.58;;
11943;SDS011;6031;50.220;10.122;2023-06-01T09:19:40;3.50;;;1.90;;
11943;SDS011;6031;50.220;10.122;2023-06-01T09:22:07;4.82;;;1.92;;
11943;SDS011;6031;50.220;10.122;2023-06-01T09:24:32;3.08;;;1.77;;
11943;SDS011;6031;50.220;10.122;2023-06-01T09:26:58;2.55;;;1.60;;
11943;SDS011;6031;50.220;10.122;2023-06-01T09:29:25;2.58;;;1.17;;
11943;SDS011;6031;50.220;10.122;2023-06-01T09:31:51;4.40;;;1.85;;
11943;SDS011;6031;50.220;10.122;2023-06-01T09:34:17;2.92;;;1.70;;
11943;SDS011;6031;50.220;10.122;2023-06-01T09:36:45;2.22;;;1.50;;
11943;SDS011;6031;50.220;10.122;2023-06-01T09:39:12;1.88;;;1.65;;
11943;SDS011;6031;50.220;10.122;2023-06-01T09:41:50;2.35;;;1.85;;
11943;SDS011;6031;50.220;10.122;2023-06-01T09:44:27;2.50;;;1.80;;
11943;SDS011;6031;50.220;10.122;2023-06-01T09:46:58;3.42;;;1.58;;
11943;SDS011;6031;50.220;10.122;2023-06-01T09:49:27;2.47;;;1.77;;
11943;SDS011;6031;50.220;10.122;2023-06-01T09:54:29;3.22;;;1.98;;
11943;SDS011;6031;50.220;10.122;2023-06-01T09:57:00;3.90;;;1.65;;
11943;SDS011;6031;50.220;10.122;2023-06-01T09:59:27;6.22;;;2.03;;
11943;SDS011;6031;50.220;10.122;2023-06-01T10:01:57;2.88;;;1.88;;
11943;SDS011;6031;50.220;10.122;2023-06-01T10:04:27;1.88;;;1.67;;
11943;SDS011;6031;50.220;10.122;2023-06-01T10:06:54;3.40;;;2.08;;
11943;SDS011;6031;50.220;10.122;2023-06-01T10:09:21;2.80;;;1.65;;
11943;SDS011;6031;50.220;10.122;2023-06-01T10:11:50;4.78;;;1.90;;
11943;SDS011;6031;50.220;10.122;2023-06-01T10:14:20;2.50;;;1.88;;
11943;SDS011;6031;50.220;10.122;2023-06-01T10:16:49;1.98;;;1.80;;
11943;SDS011;6031;50.220;10.122;2023-06-01T10:19:16;2.55;;;1.63;;
11943;SDS011;6031;50.220;10.122;2023-06-01T10:21:43;4.03;;;1.58;;
11943;SDS011;6031;50.220;10.122;2023-06-01T10:24:16;2.13;;;2.00;;
11943;SDS011;6031;50.220;10.122;2023-06-01T10:29:32;1.63;;;1.52;;
11943;SDS011;6031;50.220;10.122;2023-06-01T10:31:58;3.92;;;2.10;;
11943;SDS011;6031;50.220;10.122;2023-06-01T10:34:37;2.33;;;2.13;;
11943;SDS011;6031;50.220;10.122;2023-06-01T10:39:30;2.10;;;1.85;;
11943;SDS011;6031;50.220;10.122;2023-06-01T10:41:57;2.22;;;1.70;;
11943;SDS011;6031;50.220;10.122;2023-06-01T10:52:28;3.20;;;1.85;;
11943;SDS011;6031;50.220;10.122;2023-06-01T10:57:38;4.80;;;1.55;;
11943;SDS011;6031;50.220;10.122;2023-06-01T11:00:23;4.07;;;1.98;;
11943;SDS011;6031;50.220;10.122;2023-06-01T11:05:41;5.13;;;2.50;;
11943;SDS011;6031;50.220;10.122;2023-06-01T11:18:47;2.10;;;1.92;;
11943;SDS011;6031;50.220;10.122;2023-06-01T11:21:23;3.05;;;2.03;;
11943;SDS011;6031;50.220;10.122;2023-06-01T11:23:50;4.18;;;1.42;;
11943;SDS011;6031;50.220;10.122;2023-06-01T11:26:20;4.40;;;2.13;;
11943;SDS011;6031;50.220;10.122;2023-06-01T11:29:02;2.25;;;1.85;;
11943;SDS011;6031;50.220;10.122;2023-06-01T11:31:35;3.85;;;2.45;;
11943;SDS011;6031;50.220;10.122;2023-06-01T11:34:02;5.40;;;1.83;;
11943;SDS011;6031;50.220;10.122;2023-06-01T11:36:28;3.10;;;1.92;;
11943;SDS011;6031;50.220;10.122;2023-06-01T11:38:54;1.95;;;1.60;;
11943;SDS011;6031;50.220;10.122;2023-06-01T11:41:21;4.20;;;2.35;;
11943;SDS011;6031;50.220;10.122;2023-06-01T11:43:53;5.07;;;2.17;;
11943;SDS011;6031;50.220;10.122;2023-06-01T11:46:22;4.32;;;1.95;;
11943;SDS011;6031;50.220;10.122;2023-06-01T11:48:58;1.77;;;1.67;;
11943;SDS011;6031;50.220;10.122;2023-06-01T11:51:26;2.60;;;2.15;;
11943;SDS011;6031;50.220;10.122;2023-06-01T11:53:56;2.72;;;2.00;;
11943;SDS011;6031;50.220;10.122;2023-06-01T11:56:27;6.45;;;1.80;;
11943;SDS011;6031;50.220;10.122;2023-06-01T11:59:00;2.83;;;1.63;;
11943;SDS011;6031;50.220;10.122;2023-06-01T12:01:26;2.45;;;2.20;;
11943;SDS011;6031;50.220;10.122;2023-06-01T12:03:53;4.55;;;2.08;;
11943;SDS011;6031;50.220;10.122;2023-06-01T12:06:22;3.78;;;1.60;;
11943;SDS011;6031;50.220;10.122;2023-06-01T12:08:50;3.97;;;1.95;;
11943;SDS011;6031;50.220;10.122;2023-06-01T12:11:26;3.33;;;2.22;;
11943;SDS011;6031;50.220;10.122;2023-06-01T12:13:55;4.07;;;1.77;;
11943;SDS011;6031;50.220;10.122;2023-06-01T12:16:23;2.15;;;1.95;;
11943;SDS011;6031;50.220;10.122;2023-06-01T12:18:50;5.28;;;1.55;;
11943;SDS011;6031;50.220;10.122;2023-06-01T12:21:16;1.92;;;1.65;;
11943;SDS011;6031;50.220;10.122;2023-06-01T12:23:42;3.75;;;2.03;;
11943;SDS011;6031;50.220;10.122;2023-06-01T12:26:13;6.05;;;2.13;;
11943;SDS011;6031;50.220;10.122;2023-06-01T12:28:49;4.57;;;1.60;;
11943;SDS011;6031;50.220;10.122;2023-06-01T12:31:19;1.90;;;1.80;;
11943;SDS011;6031;50.220;10.122;2023-06-01T12:33:46;3.47;;;2.10;;
11943;SDS011;6031;50.220;10.122;2023-06-01T12:36:32;6.05;;;2.42;;
11943;SDS011;6031;50.220;10.122;2023-06-01T12:39:00;5.78;;;2.58;;
11943;SDS011;6031;50.220;10.122;2023-06-01T12:41:28;2.35;;;1.95;;
11943;SDS011;6031;50.220;10.122;2023-06-01T12:43:54;2.33;;;1.70;;
11943;SDS011;6031;50.220;10.122;2023-06-01T12:48:51;2.47;;;2.28;;
11943;SDS011;6031;50.220;10.122;2023-06-01T12:51:18;2.33;;;2.10;;
11943;SDS011;6031;50.220;10.122;2023-06-01T12:53:44;4.72;;;1.80;;
11943;SDS011;6031;50.220;10.122;2023-06-01T12:56:10;3.28;;;2.10;;
11943;SDS011;6031;50.220;10.122;2023-06-01T12:58:36;3.42;;;2.17;;
11943;SDS011;6031;50.220;10.122;2023-06-01T13:01:02;4.30;;;2.30;;
11943;SDS011;6031;50.220;10.122;2023-06-01T13:03:28;2.95;;;1.98;;
11943;SDS011;6031;50.220;10.122;2023-06-01T13:05:54;2.78;;;1.92;;
11943;SDS011;6031;50.220;10.122;2023-06-01T13:08:20;3.42;;;2.00;;
11943;SDS011;6031;50.220;10.122;2023-06-01T13:10:47;4.57;;;2.00;;
11943;SDS011;6031;50.220;10.122;2023-06-01T13:13:13;2.47;;;2.10;;
11943;SDS011;6031;50.220;10.122;2023-06-01T13:15:39;2.20;;;1.98;;
11943;SDS011;6031;50.220;10.122;2023-06-01T13:18:05;2.97;;;1.52;;
11943;SDS011;6031;50.220;10.122;2023-06-01T13:20:31;2.00;;;1.73;;
11943;SDS011;6031;50.220;10.122;2023-06-01T13:22:57;6.50;;;1.73;;
11943;SDS011;6031;50.220;10.122;2023-06-01T13:25:22;3.70;;;2.28;;
11943;SDS011;6031;50.220;10.122;2023-06-01T13:27:49;2.58;;;2.38;;
11943;SDS011;6031;50.220;10.122;2023-06-01T13:30:15;2.53;;;1.67;;
11943;SDS011;6031;50.220;10.122;2023-06-01T13:32:42;2.03;;;1.55;;
11943;SDS011;6031;50.220;10.122;2023-06-01T13:35:08;3.45;;;1.73;;
11943;SDS011;6031;50.220;10.122;2023-06-01T13:37:36;3.60;;;2.05;;
11943;SDS011;6031;50.220;10.122;2023-06-01T13:40:02;2.72;;;2.47;;
11943;SDS011;6031;50.220;10.122;2023-06-01T13:42:30;5.57;;;2.17;;
11943;SDS011;6031;50.220;10.122;2023-06-01T13:44:56;3.38;;;2.20;;
11943;SDS011;6031;50.220;10.122;2023-06-01T13:47:21;3.88;;;2.05;;
11943;SDS011;6031;50.220;10.122;2023-06-01T13:49:47;4.07;;;2.05;;
11943;SDS011;6031;50.220;10.122;2023-06-01T13:52:13;4.38;;;2.38;;
11943;SDS011;6031;50.220;10.122;2023-06-01T13:54:38;4.55;;;1.80;;
11943;SDS011;6031;50.220;10.122;2023-06-01T13:57:04;4.20;;;2.15;;
11943;SDS011;6031;50.220;10.122;2023-06-01T13:59:30;2.40;;;2.20;;
11943;SDS011;6031;50.220;10.122;2023-06-01T14:01:56;2.40;;;2.20;;
11943;SDS011;6031;50.220;10.122;2023-06-01T14:04:22;3.72;;;2.08;;
11943;SDS011;6031;50.220;10.122;2023-06-01T14:06:48;3.28;;;2.50;;
11943;SDS011;6031;50.220;10.122;2023-06-01T14:09:15;5.22;;;1.95;;
11943;SDS011;6031;50.220;10.122;2023-06-01T14:11:41;3.33;;;2.20;;
11943;SDS011;6031;50.220;10.122;2023-06-01T14:14:07;4.40;;;2.25;;
11943;SDS011;6031;50.220;10.122;2023-06-01T14:16:33;2.67;;;2.10;;
11943;SDS011;6031;50.220;10.122;2023-06-01T14:18:58;1.63;;;1.52;;
11943;SDS011;6031;50.220;10.122;2023-06-01T14:21:24;2.78;;;1.50;;
11943;SDS011;6031;50.220;10.122;2023-06-01T14:23:50;2.45;;;2.22;;
11943;SDS011;6031;50.220;10.122;2023-06-01T14:26:16;2.20;;;1.90;;
11943;SDS011;6031;50.220;10.122;2023-06-01T14:28:41;3.88;;;1.98;;
11943;SDS011;6031;50.220;10.122;2023-06-01T14:31:07;2.45;;;2.03;;
11943;SDS011;6031;50.220;10.122;2023-06-01T14:33:32;3.40;;;1.77;;
11943;SDS011;6031;50.220;10.122;2023-06-01T14:35:58;2.28;;;1.92;;
11943;SDS011;6031;50.220;10.122;2023-06-01T14:38:23;2.25;;;1.77;;
11943;SDS011;6031;50.220;10.122;2023-06-01T14:40:49;2.28;;;1.60;;
11943;SDS011;6031;50.220;10.122;2023-06-01T14:43:14;4.85;;;2.15;;
11943;SDS011;6031;50.220;10.122;2023-06-01T14:45:40;2.67;;;2.28;;
11943;SDS011;6031;50.220;10.122;2023-06-01T14:48:05;2.00;;;1.90;;
11943;SDS011;6031;50.220;10.122;2023-06-01T14:50:31;2.28;;;2.08;;
11943;SDS011;6031;50.220;10.122;2023-06-01T14:52:56;2.15;;;1.95;;
11943;SDS011;6031;50.220;10.122;2023-06-01T14:55:24;5.38;;;2.63;;
11943;SDS011;6031;50.220;10.122;2023-06-01T14:57:51;2.35;;;2.15;;
11943;SDS011;6031;50.220;10.122;2023-06-01T15:00:16;2.78;;;2.10;;
11943;SDS011;6031;50.220;10.122;2023-06-01T15:02:43;6.32;;;2.50;;
11943;SDS011;6031;50.220;10.122;2023-06-01T15:05:10;2.60;;;1.98;;
11943;SDS011;6031;50.220;10.122;2023-06-01T15:07:36;2.88;;;2.38;;
11943;SDS011;6031;50.220;10.122;2023-06-01T15:10:02;4.07;;;2.40;;
11943;SDS011;6031;50.220;10.122;2023-06-01T15:12:28;2.30;;;2.10;;
11943;SDS011;6031;50.220;10.122;2023-06-01T15:14:53;2.78;;;2.10;;
11943;SDS011;6031;50.220;10.122;2023-06-01T15:17:19;2.55;;;2.20;;
11943;SDS011;6031;50.220;10.122;2023-06-01T15:19:45;3.08;;;2.35;;
11943;SDS011;6031;50.220;10.122;2023-06-01T15:22:11;3.40;;;2.72;;
11943;SDS011;6031;50.220;10.122;2023-06-01T15:24:37;4.72;;;3.20;;
11943;SDS011;6031;50.220;10.122;2023-06-01T15:27:04;4.68;;;3.00;;
11943;SDS011;6031;50.220;10.122;2023-06-01T15:29:31;2.88;;;2.67;;
11943;SDS011;6031;50.220;10.122;2023-06-01T15:31:56;3.42;;;3.10;;
11943;SDS011;6031;50.220;10.122;2023-06-01T15:34:22;3.95;;;3.50;;
11943;SDS011;6031;50.220;10.122;2023-06-01T15:36:47;5.55;;;3.92;;
11943;SDS011;6031;50.220;10.122;2023-06-01T15:39:13;3.70;;;3.40;;